Time;durP1;ratioP1;P1;durP2;ratioP2;P2;SDS_P1;SDS_P2;PMS_P1;PMS_P2;Temp;Humidity;BMP_temperature;BMP_pressure;BME280_temperature;BME280_humidity;BME280_pressure;Samples;Min_cycle;Max_cycle;Signal;HPM_P1;HPM_P2
2022/12/03 00:01:24;;;;;;;25.30;17.42;;;3.30;99.90;;;;;;4964130;28;20042;-60
2022/12/03 00:03:49;;;;;;;26.58;16.30;;;3.40;99.90;;;;;;4960894;28;20120;-59
2022/12/03 00:06:16;;;;;;;28.85;16.52;;;3.50;99.90;;;;;;4955098;28;20061;-59
2022/12/03 00:08:42;;;;;;;25.58;16.33;;;4.00;99.90;;;;;;4945419;28;20039;-60
2022/12/03 00:11:07;;;;;;;25.70;16.55;;;3.60;99.90;;;;;;4943811;28;20039;-60
2022/12/03 00:13:33;;;;;;;24.45;16.20;;;3.60;99.90;;;;;;4944221;28;20043;-60
2022/12/03 00:15:58;;;;;;;24.25;15.93;;;4.10;99.90;;;;;;4944013;28;20459;-59
2022/12/03 00:18:24;;;;;;;25.08;15.93;;;4.10;99.90;;;;;;4943434;28;20051;-60
2022/12/03 00:20:50;;;;;;;26.10;16.05;;;3.60;99.90;;;;;;4944853;28;20086;-59
2022/12/03 00:23:15;;;;;;;23.95;15.63;;;3.40;99.90;;;;;;4944851;28;20526;-59
2022/12/03 00:25:41;;;;;;;23.30;15.77;;;3.50;99.90;;;;;;4944523;28;20108;-59
2022/12/03 00:28:06;;;;;;;22.92;15.75;;;3.70;99.90;;;;;;4944520;28;20122;-60
2022/12/03 00:30:32;;;;;;;23.55;15.70;;;3.60;99.90;;;;;;4944837;28;20046;-59
2022/12/03 00:32:58;;;;;;;22.42;15.90;;;3.50;99.90;;;;;;4942289;28;20105;-60
2022/12/03 00:35:23;;;;;;;23.55;15.93;;;3.90;99.90;;;;;;4944373;28;20070;-59
2022/12/03 00:37:49;;;;;;;23.45;15.50;;;3.50;99.90;;;;;;4944468;28;20055;-59
2022/12/03 00:40:15;;;;;;;22.80;15.43;;;3.40;99.90;;;;;;4944343;28;20048;-59
2022/12/03 00:42:40;;;;;;;23.27;16.17;;;3.60;99.90;;;;;;4943300;28;20046;-59
2022/12/03 00:45:06;;;;;;;22.63;16.23;;;3.50;99.90;;;;;;4944709;28;20193;-59
2022/12/03 00:47:32;;;;;;;22.33;16.10;;;3.60;99.90;;;;;;4943911;28;20070;-60
2022/12/03 00:49:57;;;;;;;24.35;16.63;;;4.40;99.90;;;;;;4944875;28;20091;-59
2022/12/03 00:52:23;;;;;;;23.67;16.48;;;3.50;99.90;;;;;;4944105;28;20058;-60
2022/12/03 00:54:49;;;;;;;24.85;16.77;;;3.60;99.90;;;;;;4944459;28;20054;-59
2022/12/03 00:57:14;;;;;;;25.20;16.52;;;3.70;99.90;;;;;;4943220;29;20051;-59
2022/12/03 00:59:40;;;;;;;22.48;15.63;;;3.60;99.90;;;;;;4944830;28;20078;-60
2022/12/03 01:02:06;;;;;;;24.02;16.02;;;3.60;99.90;;;;;;4943865;28;20051;-60
2022/12/03 01:04:32;;;;;;;25.70;16.83;;;3.40;99.90;;;;;;4946476;28;20050;-60
2022/12/03 01:06:59;;;;;;;23.52;16.52;;;5.10;99.90;;;;;;4951687;28;20063;-60
2022/12/03 01:09:25;;;;;;;24.27;16.88;;;3.60;99.90;;;;;;4944788;28;20063;-59
2022/12/03 01:11:50;;;;;;;23.63;15.85;;;3.60;99.90;;;;;;4943413;28;20071;-60
2022/12/03 01:14:18;;;;;;;22.05;15.32;;;3.50;99.90;;;;;;4944285;28;20039;-59
2022/12/03 01:16:45;;;;;;;24.05;16.15;;;3.40;99.90;;;;;;4944739;28;20497;-59
2022/12/03 01:19:16;;;;;;;22.85;16.27;;;3.70;99.90;;;;;;4942448;28;20101;-59
2022/12/03 01:21:43;;;;;;;23.88;16.33;;;3.40;99.90;;;;;;4944335;28;20149;-59
2022/12/03 01:24:09;;;;;;;22.90;15.57;;;3.50;99.90;;;;;;4944574;28;20083;-59
2022/12/03 01:26:35;;;;;;;23.90;15.88;;;3.40;99.90;;;;;;4944201;28;20051;-60
2022/12/03 01:29:01;;;;;;;23.85;16.80;;;3.30;99.90;;;;;;4943844;28;20058;-60
2022/12/03 01:34:11;;;;;;;22.45;16.50;;;3.50;99.90;;;;;;4942931;28;20051;-60
2022/12/03 01:36:36;;;;;;;23.67;16.45;;;4.80;99.90;;;;;;4944042;28;20129;-59
2022/12/03 01:39:03;;;;;;;22.33;15.75;;;3.30;99.90;;;;;;4942519;29;20082;-60
2022/12/03 01:41:30;;;;;;;23.13;15.60;;;3.40;99.90;;;;;;4944143;28;20047;-60
2022/12/03 01:43:57;;;;;;;24.23;17.05;;;3.90;99.90;;;;;;4943762;28;20040;-60
2022/12/03 01:46:38;;;;;;;24.38;16.10;;;3.40;99.90;;;;;;4945988;28;20692;-60
2022/12/03 01:49:04;;;;;;;23.17;16.75;;;3.50;99.90;;;;;;4946737;28;20185;-59
2022/12/03 01:51:30;;;;;;;24.05;16.30;;;3.50;99.90;;;;;;4946713;28;20122;-59
2022/12/03 01:54:03;;;;;;;21.60;15.77;;;3.70;99.90;;;;;;4947070;28;20047;-59
2022/12/03 01:56:29;;;;;;;22.35;16.45;;;3.40;99.90;;;;;;4947666;28;20167;-59
2022/12/03 01:58:55;;;;;;;25.63;16.77;;;3.30;99.90;;;;;;4946857;28;20201;-59
2022/12/03 02:01:20;;;;;;;24.17;16.63;;;3.30;99.90;;;;;;4947659;28;20051;-59
2022/12/03 02:03:46;;;;;;;22.98;16.75;;;3.30;99.90;;;;;;4948855;28;20660;-59
2022/12/03 02:06:20;;;;;;;24.05;16.73;;;3.40;99.90;;;;;;4958575;28;20043;-59
2022/12/03 02:08:46;;;;;;;24.08;16.83;;;5.10;99.90;;;;;;4946547;29;20082;-59
2022/12/03 02:11:24;;;;;;;22.80;16.23;;;3.50;99.90;;;;;;5029803;23;20081;-59
2022/12/03 02:13:54;;;;;;;22.25;16.38;;;3.30;99.90;;;;;;4997892;28;20034;-60
2022/12/03 02:16:20;;;;;;;22.30;16.75;;;3.30;99.90;;;;;;5002522;28;20051;-60
2022/12/03 02:18:46;;;;;;;23.15;16.25;;;4.60;99.90;;;;;;5003771;28;20096;-59
2022/12/03 02:21:43;;;;;;;25.20;16.25;;;3.50;99.90;;;;;;5004537;28;20730;-60
2022/12/03 02:24:19;;;;;;;25.08;17.33;;;3.50;99.90;;;;;;5004234;28;20116;-59
2022/12/03 02:26:45;;;;;;;24.83;17.23;;;3.40;99.90;;;;;;5003684;28;20052;-60
2022/12/03 02:29:10;;;;;;;28.48;18.10;;;4.40;99.90;;;;;;5004553;28;20512;-60
2022/12/03 02:31:36;;;;;;;24.88;17.15;;;4.20;99.90;;;;;;5004830;28;20077;-59
2022/12/03 02:34:09;;;;;;;24.13;16.85;;;3.50;99.90;;;;;;5003981;28;20117;-59
2022/12/03 02:36:36;;;;;;;24.23;16.30;;;3.30;99.90;;;;;;5004291;28;20120;-59
2022/12/03 02:39:03;;;;;;;25.30;17.50;;;3.50;99.90;;;;;;5005066;28;20416;-60
2022/12/03 02:44:13;;;;;;;24.63;16.98;;;3.40;99.90;;;;;;5004762;28;20053;-59
2022/12/03 02:46:38;;;;;;;24.70;17.23;;;3.30;99.90;;;;;;5004611;28;20037;-59
2022/12/03 02:49:05;;;;;;;24.17;16.17;;;3.30;99.90;;;;;;5002610;28;20519;-60
2022/12/03 02:51:32;;;;;;;22.85;15.85;;;3.60;99.90;;;;;;5004501;28;20041;-59
2022/12/03 02:53:58;;;;;;;23.23;16.10;;;3.30;99.90;;;;;;5004389;28;20467;-60
2022/12/03 02:56:28;;;;;;;23.67;16.23;;;3.30;99.90;;;;;;5004403;28;20042;-59
2022/12/03 02:58:58;;;;;;;27.08;16.83;;;3.40;99.90;;;;;;5003783;28;20050;-59
2022/12/03 03:01:24;;;;;;;24.42;16.83;;;3.40;99.90;;;;;;5004747;28;20119;-60
2022/12/03 03:03:50;;;;;;;23.45;17.08;;;3.40;99.90;;;;;;5001718;28;20041;-60
2022/12/03 03:06:18;;;;;;;19.95;13.68;;;3.30;99.90;;;;;;4995241;28;20046;-59
2022/12/03 03:08:44;;;;;;;24.38;17.08;;;3.30;99.90;;;;;;4994974;28;20053;-59
2022/12/03 03:11:10;;;;;;;24.05;16.17;;;3.90;99.90;;;;;;5004320;28;20505;-59
2022/12/03 03:13:37;;;;;;;24.52;16.73;;;3.40;99.90;;;;;;5004289;28;20065;-60
2022/12/03 03:16:04;;;;;;;23.17;17.02;;;3.30;99.90;;;;;;5003832;28;20073;-59
2022/12/03 03:18:30;;;;;;;22.58;16.35;;;3.20;99.90;;;;;;5003064;28;20037;-60
2022/12/03 03:20:56;;;;;;;23.27;16.77;;;3.30;99.90;;;;;;5003443;28;20057;-59
2022/12/03 03:23:23;;;;;;;24.52;16.05;;;3.30;99.90;;;;;;5003633;28;20042;-59
2022/12/03 03:26:09;;;;;;;24.23;16.92;;;3.30;99.90;;;;;;5003110;28;20049;-59
2022/12/03 03:28:37;;;;;;;24.25;17.08;;;3.10;99.90;;;;;;5003620;28;20163;-58
2022/12/03 03:31:05;;;;;;;23.17;16.52;;;3.10;99.90;;;;;;5003801;28;20116;-59
2022/12/03 03:33:31;;;;;;;25.60;17.08;;;3.10;99.90;;;;;;5003184;28;20048;-60
2022/12/03 03:35:59;;;;;;;23.90;17.02;;;3.10;99.90;;;;;;5003710;28;20144;-59
2022/12/03 03:38:25;;;;;;;23.08;16.13;;;3.10;99.90;;;;;;5003865;28;20081;-59
2022/12/03 03:40:52;;;;;;;24.42;16.85;;;3.70;99.90;;;;;;5002028;28;20125;-60
2022/12/03 03:43:21;;;;;;;26.25;17.42;;;3.30;99.90;;;;;;5002759;28;20077;-59
2022/12/03 03:45:47;;;;;;;25.10;16.00;;;4.00;99.90;;;;;;5004200;28;20037;-63
2022/12/03 03:48:13;;;;;;;23.80;16.40;;;4.90;99.90;;;;;;5002952;28;20046;-60
2022/12/03 03:50:40;;;;;;;25.63;16.70;;;3.20;99.90;;;;;;5004125;28;20045;-58
2022/12/03 03:53:06;;;;;;;23.73;16.35;;;3.50;99.90;;;;;;4986356;28;20053;-60
2022/12/03 03:55:33;;;;;;;24.63;17.33;;;3.10;99.90;;;;;;5003499;28;20046;-59
2022/12/03 03:57:59;;;;;;;27.60;18.25;;;3.00;99.90;;;;;;5002624;28;20135;-59
2022/12/03 04:00:25;;;;;;;23.23;17.20;;;3.20;99.90;;;;;;5003274;28;20239;-60
2022/12/03 04:02:52;;;;;;;25.58;18.30;;;3.20;99.90;;;;;;5002723;28;20113;-59
2022/12/03 04:05:20;;;;;;;24.77;16.98;;;3.30;99.90;;;;;;4996303;28;20050;-60
2022/12/03 04:07:46;;;;;;;24.90;17.83;;;3.50;99.90;;;;;;4985830;28;20354;-59
2022/12/03 04:12:57;;;;;;;25.05;17.00;;;3.40;99.90;;;;;;4983196;28;20145;-60
2022/12/03 04:15:24;;;;;;;24.27;17.23;;;3.10;99.90;;;;;;4981340;28;20125;-58
2022/12/03 04:18:41;;;;;;;23.67;16.23;;;3.10;99.90;;;;;;4982170;28;20046;-60
2022/12/03 04:20:37;;;;;;;25.45;17.63;;;3.10;99.90;;;;;;4982846;28;20049;-60
2022/12/03 04:23:03;;;;;;;24.48;17.27;;;4.80;99.90;;;;;;4983422;28;20046;-59
2022/12/03 04:30:57;;;;;;;25.57;17.30;;;3.10;99.90;;;;;;4982803;28;20060;-59
2022/12/03 04:36:07;;;;;;;24.85;17.15;;;3.10;99.90;;;;;;4982825;28;20046;-58
2022/12/03 04:38:33;;;;;;;24.55;17.50;;;3.10;99.90;;;;;;4981619;28;20126;-60
2022/12/03 04:41:02;;;;;;;25.42;17.35;;;3.00;99.90;;;;;;4982334;28;20046;-59
2022/12/03 04:43:33;;;;;;;25.73;18.02;;;3.20;99.90;;;;;;4983265;28;20069;-59
2022/12/03 04:46:00;;;;;;;27.40;17.90;;;3.10;99.90;;;;;;4982990;28;20584;-58
2022/12/03 04:48:26;;;;;;;28.38;18.30;;;3.10;99.90;;;;;;4982061;28;20042;-60
2022/12/03 04:50:51;;;;;;;25.63;17.83;;;3.20;99.90;;;;;;4982851;28;20077;-59
2022/12/03 04:53:17;;;;;;;25.08;17.05;;;3.10;99.90;;;;;;4983165;28;20215;-60
2022/12/03 04:55:43;;;;;;;25.95;17.83;;;3.10;99.90;;;;;;4982246;28;20057;-60
2022/12/03 04:58:09;;;;;;;24.05;16.52;;;3.00;99.90;;;;;;4983749;28;20050;-58
2022/12/03 05:00:34;;;;;;;26.75;17.73;;;3.10;99.90;;;;;;4983373;28;20065;-59
2022/12/03 05:03:00;;;;;;;26.48;17.70;;;2.90;99.90;;;;;;4981913;28;20702;-59
2022/12/03 05:05:26;;;;;;;27.15;17.55;;;3.60;99.90;;;;;;4991631;28;20042;-60
2022/12/03 05:07:51;;;;;;;25.13;16.23;;;2.90;99.90;;;;;;4985201;28;20592;-59
2022/12/03 05:10:17;;;;;;;27.58;17.95;;;3.00;99.90;;;;;;4983284;28;20046;-60
2022/12/03 05:12:42;;;;;;;25.75;17.70;;;2.90;99.90;;;;;;4983274;28;20051;-60
2022/12/03 05:15:08;;;;;;;26.00;18.05;;;3.30;99.90;;;;;;4982983;28;20046;-59
2022/12/03 05:17:34;;;;;;;26.38;17.13;;;2.90;99.90;;;;;;4982630;28;20050;-60
2022/12/03 05:22:44;;;;;;;26.92;17.30;;;3.40;99.90;;;;;;4986197;28;20050;-59
2022/12/03 05:25:09;;;;;;;26.73;16.67;;;2.90;99.90;;;;;;4985646;28;20271;-58
2022/12/03 05:27:35;;;;;;;24.92;16.13;;;2.80;99.90;;;;;;4986873;28;20038;-58
2022/12/03 05:30:01;;;;;;;23.67;16.25;;;2.80;99.90;;;;;;4986092;28;20085;-60
2022/12/03 05:32:26;;;;;;;25.17;15.95;;;2.70;99.90;;;;;;4984133;28;20053;-59
2022/12/03 05:34:52;;;;;;;26.45;16.10;;;2.80;99.90;;;;;;4986571;28;20039;-60
2022/12/03 05:37:18;;;;;;;26.80;17.60;;;2.80;99.90;;;;;;4986748;28;20248;-60
2022/12/03 05:39:43;;;;;;;26.70;17.20;;;3.60;99.90;;;;;;4985906;28;20062;-60
2022/12/03 05:44:54;;;;;;;24.95;15.02;;;2.80;99.90;;;;;;4986432;28;20058;-60
2022/12/03 05:47:19;;;;;;;25.20;16.00;;;2.70;99.90;;;;;;4984544;28;20278;-60
2022/12/03 05:49:45;;;;;;;24.80;16.20;;;2.70;99.90;;;;;;4985974;28;20053;-60
2022/12/03 05:52:11;;;;;;;27.65;16.98;;;2.80;99.90;;;;;;4986572;28;20042;-59
2022/12/03 05:54:37;;;;;;;24.20;15.50;;;2.80;99.90;;;;;;4986300;28;20058;-59
2022/12/03 05:57:02;;;;;;;25.38;16.65;;;2.60;99.90;;;;;;4985537;28;20034;-60
2022/12/03 05:59:28;;;;;;;26.45;16.85;;;2.80;99.90;;;;;;4986137;28;20129;-59
2022/12/03 06:01:54;;;;;;;24.55;16.02;;;2.70;99.90;;;;;;4985652;28;20546;-59
2022/12/03 06:04:19;;;;;;;23.05;15.88;;;2.60;99.90;;;;;;4987947;28;20073;-59
2022/12/03 06:06:45;;;;;;;24.60;16.75;;;2.60;99.90;;;;;;4994262;28;20148;-59
2022/12/03 06:09:11;;;;;;;25.45;16.23;;;2.60;99.90;;;;;;4986141;28;20050;-60
2022/12/03 06:11:36;;;;;;;24.27;16.48;;;3.50;99.90;;;;;;4985510;28;20054;-60
2022/12/03 06:14:02;;;;;;;25.25;16.40;;;2.60;99.90;;;;;;4985167;28;20050;-60
2022/12/03 06:16:28;;;;;;;24.48;15.70;;;2.80;99.90;;;;;;4985910;28;20073;-59
2022/12/03 06:18:54;;;;;;;25.45;16.42;;;2.70;99.90;;;;;;4985078;28;20050;-60
2022/12/03 06:21:19;;;;;;;25.27;15.38;;;2.60;99.90;;;;;;4985586;28;20057;-59
2022/12/03 06:23:45;;;;;;;24.23;15.80;;;3.00;99.90;;;;;;4985223;28;20038;-59
2022/12/03 06:26:11;;;;;;;24.05;16.42;;;2.70;99.90;;;;;;4985750;28;20065;-59
2022/12/03 06:28:37;;;;;;;27.25;17.48;;;2.60;99.90;;;;;;4985629;28;20420;-59
2022/12/03 06:31:03;;;;;;;24.52;16.38;;;2.60;99.90;;;;;;4984616;28;20042;-60
2022/12/03 06:33:29;;;;;;;26.25;16.35;;;2.60;99.90;;;;;;4984078;28;20042;-59
2022/12/03 06:35:54;;;;;;;24.98;16.52;;;2.70;99.90;;;;;;4984167;28;20497;-59
2022/12/03 06:38:21;;;;;;;23.67;15.80;;;3.70;99.90;;;;;;4983474;28;20136;-59
2022/12/03 06:40:46;;;;;;;24.63;16.45;;;2.60;99.90;;;;;;4984582;28;20090;-60
2022/12/03 06:43:12;;;;;;;27.48;17.27;;;2.60;99.90;;;;;;4985726;28;20372;-59
2022/12/03 06:45:38;;;;;;;22.50;13.77;;;2.90;99.90;;;;;;4985460;28;20038;-59
2022/12/03 06:48:04;;;;;;;26.73;17.80;;;2.60;99.90;;;;;;4984302;28;20077;-60
2022/12/03 06:50:30;;;;;;;24.55;14.70;;;2.40;99.90;;;;;;4984113;28;20419;-60
2022/12/03 06:52:55;;;;;;;27.20;17.33;;;3.00;99.90;;;;;;4985091;28;20038;-59
2022/12/03 06:55:21;;;;;;;27.70;17.83;;;2.50;99.90;;;;;;4985481;28;20057;-59
2022/12/03 06:57:46;;;;;;;27.95;17.05;;;2.40;99.90;;;;;;4985494;28;20046;-58
2022/12/03 07:00:13;;;;;;;26.85;16.88;;;2.40;99.90;;;;;;4966800;28;20501;-60
2022/12/03 07:02:38;;;;;;;29.70;17.95;;;2.40;99.90;;;;;;4984165;28;20953;-59
2022/12/03 07:05:04;;;;;;;27.90;17.67;;;2.40;99.90;;;;;;4992106;28;20153;-59
2022/12/03 07:07:30;;;;;;;29.20;18.00;;;2.50;99.90;;;;;;4989578;28;20043;-58
2022/12/03 07:09:56;;;;;;;27.88;17.92;;;2.90;99.90;;;;;;4982731;28;20246;-59
2022/12/03 07:12:21;;;;;;;26.88;17.67;;;2.40;99.90;;;;;;4984422;28;20058;-60
2022/12/03 07:14:47;;;;;;;27.75;18.15;;;2.30;99.90;;;;;;4985107;28;20058;-59
2022/12/03 07:17:13;;;;;;;27.98;17.55;;;2.30;99.90;;;;;;4983739;28;20054;-60
2022/12/03 07:19:38;;;;;;;29.15;18.38;;;2.70;99.90;;;;;;4983357;28;20057;-59
2022/12/03 07:22:05;;;;;;;27.85;17.48;;;2.30;99.90;;;;;;4984345;28;20121;-60
2022/12/03 07:24:30;;;;;;;26.40;17.63;;;2.50;99.90;;;;;;4985108;28;20046;-60
2022/12/03 07:26:56;;;;;;;28.95;18.55;;;2.30;99.90;;;;;;4983208;28;20104;-59
2022/12/03 07:29:22;;;;;;;27.95;18.05;;;2.30;99.90;;;;;;4984685;28;20049;-60
2022/12/03 07:31:47;;;;;;;27.85;18.08;;;3.10;99.90;;;;;;5002340;28;20116;-59
2022/12/03 07:34:13;;;;;;;27.08;18.33;;;2.30;99.90;;;;;;5002775;28;20526;-59
2022/12/03 07:36:39;;;;;;;27.70;17.75;;;2.30;99.90;;;;;;5003051;28;20447;-59
2022/12/03 07:39:04;;;;;;;30.70;18.92;;;3.40;99.90;;;;;;5003470;28;20041;-59
2022/12/03 07:41:30;;;;;;;30.83;18.98;;;2.30;99.90;;;;;;5003610;28;20080;-60
2022/12/03 07:43:56;;;;;;;28.02;18.77;;;2.30;99.90;;;;;;5002557;28;20782;-60
2022/12/03 07:46:22;;;;;;;29.95;18.60;;;2.90;99.90;;;;;;5002160;28;20049;-60
2022/12/03 07:48:47;;;;;;;28.67;18.80;;;2.30;99.90;;;;;;5003434;28;20068;-60
2022/12/03 07:51:13;;;;;;;31.42;19.30;;;2.30;99.90;;;;;;5003193;28;20140;-59
2022/12/03 07:53:39;;;;;;;31.05;19.73;;;2.30;99.90;;;;;;5003171;28;20176;-60
2022/12/03 07:56:05;;;;;;;28.50;18.10;;;2.30;99.90;;;;;;5003219;28;20053;-59
2022/12/03 07:58:30;;;;;;;27.70;17.05;;;2.30;99.90;;;;;;5003415;28;20084;-60
2022/12/03 08:00:56;;;;;;;27.48;18.60;;;2.60;99.90;;;;;;5003544;28;20049;-59
2022/12/03 08:03:22;;;;;;;31.75;19.38;;;2.20;99.90;;;;;;5002255;28;20432;-59
2022/12/03 08:05:48;;;;;;;28.48;19.15;;;2.30;99.90;;;;;;4996028;28;20911;-60
2022/12/03 08:08:13;;;;;;;32.97;19.65;;;2.20;99.90;;;;;;4983545;28;20046;-59
2022/12/03 08:10:39;;;;;;;29.58;18.60;;;2.70;99.90;;;;;;4983288;28;20096;-59
2022/12/03 08:13:16;;;;;;;33.17;19.05;;;3.40;99.90;;;;;;4982998;28;20417;-59
2022/12/03 08:15:42;;;;;;;29.25;18.80;;;2.20;99.90;;;;;;4982138;28;20050;-59
2022/12/03 08:18:16;;;;;;;31.38;18.95;;;2.20;99.90;;;;;;4982883;28;20605;-60
2022/12/03 08:20:44;;;;;;;30.05;19.58;;;2.20;99.90;;;;;;4982729;28;20982;-60
2022/12/03 08:23:18;;;;;;;32.20;20.20;;;2.20;99.90;;;;;;4982440;28;20038;-60
2022/12/03 08:25:45;;;;;;;29.77;19.43;;;2.20;99.90;;;;;;4983636;28;20393;-59
2022/12/03 08:28:17;;;;;;;30.42;20.15;;;2.10;99.90;;;;;;4981927;28;20081;-59
2022/12/03 08:30:47;;;;;;;33.88;21.67;;;2.00;99.90;;;;;;4982904;28;20488;-59
2022/12/03 08:33:24;;;;;;;32.17;19.33;;;2.10;99.90;;;;;;4981852;28;20038;-60
2022/12/03 08:35:50;;;;;;;30.15;19.27;;;2.10;99.90;;;;;;4981967;28;20764;-60
2022/12/03 08:38:20;;;;;;;30.67;19.38;;;2.40;99.90;;;;;;4982773;28;20082;-60
2022/12/03 08:40:48;;;;;;;30.88;20.05;;;2.10;99.90;;;;;;4983569;28;20417;-59
2022/12/03 08:43:25;;;;;;;30.65;19.10;;;2.00;99.90;;;;;;4982291;28;20046;-60
2022/12/03 08:45:56;;;;;;;31.92;19.50;;;2.10;99.90;;;;;;4982722;28;20122;-60
2022/12/03 08:48:31;;;;;;;32.08;19.98;;;2.00;99.90;;;;;;4981679;28;20076;-60
2022/12/03 08:51:17;;;;;;;29.98;19.63;;;2.20;99.90;;;;;;4982698;28;20439;-60
2022/12/03 08:53:49;;;;;;;33.47;19.50;;;2.10;99.90;;;;;;4982984;28;20038;-60
2022/12/03 08:56:24;;;;;;;33.85;19.95;;;2.00;99.90;;;;;;4986313;28;20508;-60
2022/12/03 08:59:23;;;;;;;34.28;20.98;;;1.90;99.90;;;;;;4987164;28;20061;-60
2022/12/03 09:01:52;;;;;;;30.48;19.85;;;2.00;99.90;;;;;;4986714;28;20043;-60
2022/12/03 09:04:43;;;;;;;31.67;20.17;;;2.10;99.90;;;;;;4989146;28;20038;-60
2022/12/03 09:07:08;;;;;;;31.10;18.70;;;2.00;99.90;;;;;;4998465;28;20046;-60
2022/12/03 09:09:34;;;;;;;33.55;20.48;;;2.90;99.90;;;;;;5004340;28;20049;-59
2022/12/03 09:12:01;;;;;;;34.47;21.17;;;2.60;99.90;;;;;;5004986;28;20061;-60
2022/12/03 09:14:27;;;;;;;32.45;19.67;;;2.30;99.90;;;;;;5006409;28;20049;-61
2022/12/03 09:16:54;;;;;;;34.35;21.02;;;1.90;99.90;;;;;;5005670;28;20050;-60
2022/12/03 09:19:25;;;;;;;34.03;21.13;;;2.70;99.90;;;;;;5006004;28;20056;-61
2022/12/03 09:21:52;;;;;;;33.85;21.33;;;2.00;99.90;;;;;;5004565;28;20131;-60
2022/12/03 09:24:18;;;;;;;34.65;21.38;;;3.00;99.90;;;;;;5006403;28;20140;-60
2022/12/03 09:26:44;;;;;;;32.30;19.92;;;2.00;99.90;;;;;;5004444;28;20061;-61
2022/12/03 09:29:09;;;;;;;34.85;20.50;;;2.00;99.90;;;;;;5004684;28;20038;-60
2022/12/03 09:31:35;;;;;;;35.15;21.02;;;2.10;99.90;;;;;;5002901;28;20915;-60
2022/12/03 09:34:02;;;;;;;34.42;20.30;;;1.90;99.90;;;;;;5006041;28;20064;-61
2022/12/03 09:36:28;;;;;;;35.42;19.88;;;2.00;99.90;;;;;;5005728;28;20049;-60
2022/12/03 09:38:54;;;;;;;34.67;21.92;;;1.90;99.90;;;;;;5005439;28;20034;-60
2022/12/03 09:41:20;;;;;;;34.90;20.35;;;1.90;99.90;;;;;;5005199;28;20045;-59
2022/12/03 09:43:46;;;;;;;35.50;21.30;;;2.90;99.90;;;;;;5005405;28;20053;-65
2022/12/03 09:46:11;;;;;;;34.58;21.65;;;1.80;99.90;;;;;;5004388;28;20492;-65
2022/12/03 09:48:37;;;;;;;32.85;20.02;;;1.90;99.90;;;;;;5005027;28;20037;-64
2022/12/03 09:51:03;;;;;;;36.33;20.25;;;2.30;99.90;;;;;;5004226;28;20044;-65
2022/12/03 09:53:29;;;;;;;35.97;22.38;;;1.80;99.90;;;;;;5003846;28;20040;-66
2022/12/03 09:55:58;;;;;;;35.72;21.13;;;1.70;99.90;;;;;;5003910;28;20359;-64
2022/12/03 09:58:26;;;;;;;35.50;21.42;;;1.80;99.90;;;;;;5005221;28;20077;-65
2022/12/03 10:00:52;;;;;;;37.97;22.00;;;1.80;99.90;;;;;;5002590;28;20042;-65
2022/12/03 10:03:24;;;;;;;35.35;21.00;;;2.00;99.90;;;;;;5003794;28;20045;-66
2022/12/03 10:05:52;;;;;;;36.75;20.95;;;3.30;99.90;;;;;;4996606;28;20046;-65
2022/12/03 10:08:21;;;;;;;34.58;19.83;;;3.30;99.90;;;;;;4985869;28;20046;-64
2022/12/03 10:10:53;;;;;;;36.60;21.55;;;1.80;99.90;;;;;;4984035;28;20062;-65
2022/12/03 10:13:28;;;;;;;36.28;21.50;;;1.80;99.90;;;;;;4984560;28;20412;-64
2022/12/03 10:15:57;;;;;;;35.47;21.60;;;3.20;99.90;;;;;;4984376;28;20057;-65
2022/12/03 10:18:25;;;;;;;35.45;22.38;;;1.80;99.90;;;;;;4982885;28;20047;-65
2022/12/03 10:20:52;;;;;;;35.47;20.40;;;1.90;99.90;;;;;;4984825;28;20050;-65
2022/12/03 10:23:29;;;;;;;33.10;19.42;;;1.90;99.90;;;;;;4983851;28;20046;-64
2022/12/03 10:26:01;;;;;;;32.00;19.48;;;1.90;99.90;;;;;;4983769;28;20472;-66
2022/12/03 10:28:33;;;;;;;36.45;21.55;;;2.00;99.90;;;;;;4983601;28;20038;-65
2022/12/03 10:31:01;;;;;;;32.67;18.88;;;1.80;99.90;;;;;;4983596;28;20121;-58
2022/12/03 10:33:36;;;;;;;35.78;21.95;;;2.00;99.90;;;;;;4984679;28;20137;-73
2022/12/03 10:36:16;;;;;;;34.40;21.75;;;2.10;99.90;;;;;;4981051;28;20089;-76
2022/12/03 10:38:42;;;;;;;35.65;21.13;;;2.20;99.90;;;;;;4996356;28;20398;-79
2022/12/03 10:41:27;;;;;;;33.40;20.23;;;2.20;99.90;;;;;;5002736;28;20095;-84
2022/12/03 10:43:53;;;;;;;32.78;19.67;;;3.40;99.90;;;;;;5004147;28;20374;-85
2022/12/03 10:46:22;;;;;;;33.42;21.80;;;3.10;99.90;;;;;;5002820;28;20084;-76
2022/12/03 10:49:08;;;;;;;32.65;17.35;;;2.80;99.90;;;;;;4983194;28;20053;-84
2022/12/03 10:51:34;;;;;;;29.13;17.85;;;3.30;99.90;;;;;;4984349;28;20129;-84
2022/12/03 10:54:01;;;;;;;33.35;20.58;;;1.90;99.90;;;;;;4984170;28;20128;-64
2022/12/03 10:56:27;;;;;;;32.53;20.13;;;2.20;99.90;;;;;;5002839;28;20042;-72
2022/12/03 10:58:54;;;;;;;34.00;19.55;;;2.70;99.90;;;;;;5004284;28;20042;-71
2022/12/03 11:01:24;;;;;;;32.55;20.77;;;3.10;99.90;;;;;;5002839;28;20049;-73
2022/12/03 11:03:51;;;;;;;31.25;18.88;;;2.40;99.90;;;;;;5000349;28;20046;-71
2022/12/03 11:06:21;;;;;;;31.88;20.10;;;2.50;99.90;;;;;;4994379;28;20042;-72
2022/12/03 11:08:52;;;;;;;32.85;20.58;;;2.10;99.90;;;;;;4983555;28;20050;-71
2022/12/03 11:11:29;;;;;;;30.83;18.55;;;2.80;99.90;;;;;;4983387;28;20062;-72
2022/12/03 11:14:02;;;;;;;36.17;21.25;;;2.20;99.90;;;;;;4983283;28;20046;-72
2022/12/03 11:16:40;;;;;;;34.45;21.13;;;2.10;99.90;;;;;;4982031;28;20038;-72
2022/12/03 11:19:16;;;;;;;32.60;20.98;;;3.20;99.90;;;;;;4983583;28;20108;-70
2022/12/03 11:22:09;;;;;;;33.72;20.85;;;2.30;99.90;;;;;;4983762;28;20489;-72
2022/12/03 11:25:25;;;;;;;33.25;20.42;;;2.20;99.90;;;;;;4936655;28;20134;-72
2022/12/03 11:28:12;;;;;;;35.53;21.23;;;2.20;99.90;;;;;;4983304;28;20057;-72
2022/12/03 11:30:50;;;;;;;33.95;18.38;;;2.20;99.90;;;;;;4982182;28;20440;-70
2022/12/03 11:33:30;;;;;;;34.78;21.25;;;2.20;99.90;;;;;;4982791;28;20347;-71
2022/12/03 11:36:02;;;;;;;30.83;19.63;;;2.20;99.90;;;;;;4981666;28;20061;-71
2022/12/03 11:38:37;;;;;;;32.13;20.70;;;2.90;99.90;;;;;;4982993;28;20088;-72
2022/12/03 11:41:18;;;;;;;34.22;21.00;;;3.00;99.90;;;;;;4966586;28;20082;-70
2022/12/03 11:43:54;;;;;;;33.38;20.25;;;2.20;99.90;;;;;;4982353;28;20073;-71
2022/12/03 11:46:26;;;;;;;33.70;20.38;;;2.30;99.90;;;;;;4982921;28;20311;-71
2022/12/03 11:48:54;;;;;;;33.67;20.98;;;2.30;99.90;;;;;;4982559;28;20438;-71
2022/12/03 11:51:25;;;;;;;33.20;20.73;;;2.40;99.90;;;;;;4983429;28;20050;-71
2022/12/03 11:53:54;;;;;;;32.92;19.75;;;2.40;99.90;;;;;;4984234;28;20046;-72
2022/12/03 11:56:24;;;;;;;30.67;17.73;;;2.80;99.90;;;;;;4983182;28;20041;-71
2022/12/03 11:59:01;;;;;;;32.95;20.50;;;2.40;99.90;;;;;;4982130;28;20058;-71
2022/12/03 12:01:35;;;;;;;31.48;19.83;;;2.40;99.90;;;;;;4981909;28;20064;-70
2022/12/03 12:04:02;;;;;;;31.48;20.27;;;2.40;99.90;;;;;;4985122;28;20042;-71
2022/12/03 12:06:27;;;;;;;30.30;19.75;;;3.30;99.90;;;;;;4991843;28;20068;-71
2022/12/03 12:08:58;;;;;;;31.98;19.92;;;2.50;99.90;;;;;;4992623;28;20570;-72
2022/12/03 12:11:32;;;;;;;31.75;19.88;;;2.40;99.90;;;;;;5000758;28;20058;-72
2022/12/03 12:14:11;;;;;;;30.25;18.27;;;2.50;99.90;;;;;;5000868;28;20411;-73
2022/12/03 12:16:46;;;;;;;32.05;20.58;;;2.40;99.90;;;;;;5001372;28;20041;-73
2022/12/03 12:19:41;;;;;;;31.40;20.20;;;2.40;99.90;;;;;;5000882;28;20056;-72
2022/12/03 12:22:23;;;;;;;33.65;20.30;;;2.50;99.90;;;;;;5000963;28;20053;-71
2022/12/03 12:24:54;;;;;;;31.30;18.13;;;2.50;99.90;;;;;;5001985;28;20046;-73
2022/12/03 12:27:29;;;;;;;30.75;18.48;;;2.30;99.90;;;;;;5000693;28;20050;-72
2022/12/03 12:30:01;;;;;;;30.63;18.52;;;3.70;99.90;;;;;;5002218;28;20556;-72
2022/12/03 12:32:29;;;;;;;30.00;18.83;;;2.40;99.90;;;;;;5002025;28;20472;-72
2022/12/03 12:35:21;;;;;;;29.77;19.23;;;2.40;99.90;;;;;;5002189;28;20100;-72
2022/12/03 12:37:52;;;;;;;30.17;18.52;;;2.50;99.90;;;;;;5002779;28;20038;-72
2022/12/03 12:40:22;;;;;;;29.90;16.88;;;2.50;99.90;;;;;;5002037;28;20390;-73
2022/12/03 12:43:03;;;;;;;35.60;21.50;;;2.40;99.90;;;;;;5002535;28;20038;-72
2022/12/03 12:45:34;;;;;;;32.05;19.73;;;2.40;99.90;;;;;;5001559;28;20060;-68
2022/12/03 12:48:23;;;;;;;30.08;17.45;;;2.40;99.90;;;;;;5001232;28;20477;-71
2022/12/03 12:50:59;;;;;;;29.83;18.35;;;2.40;99.90;;;;;;5001640;28;20762;-71
2022/12/03 12:53:32;;;;;;;32.08;20.10;;;2.30;99.90;;;;;;5002787;28;20042;-71
2022/12/03 12:56:12;;;;;;;29.23;19.37;;;3.30;99.90;;;;;;5002810;28;20463;-73
2022/12/03 12:58:37;;;;;;;35.00;20.48;;;2.40;99.90;;;;;;5002902;28;20588;-71
2022/12/03 13:01:06;;;;;;;30.38;19.80;;;3.00;99.90;;;;;;5001801;28;20128;-71
2022/12/03 13:03:38;;;;;;;31.65;19.63;;;2.40;99.90;;;;;;5002569;28;20053;-71
2022/12/03 13:06:04;;;;;;;33.83;20.77;;;2.30;99.90;;;;;;4990289;28;20080;-71